createdAt,value
2023-01-23T00:01:15.737Z,42.80
2023-01-23T00:03:43.104Z,41.28
2023-01-23T00:06:15.431Z,43.97
2023-01-23T00:08:45.640Z,37.05
2023-01-23T00:11:16.622Z,44.00
2023-01-23T00:13:43.700Z,37.17
2023-01-23T00:16:23.367Z,36.63
2023-01-23T00:18:50.975Z,38.45
2023-01-23T00:21:20.945Z,41.80
2023-01-23T00:23:50.644Z,40.30
2023-01-23T00:26:28.310Z,37.38
2023-01-23T00:28:56.143Z,33.17
2023-01-23T00:31:28.869Z,32.25
2023-01-23T00:34:01.835Z,31.75
2023-01-23T00:36:34.434Z,30.88
2023-01-23T00:39:01.817Z,30.02
2023-01-23T00:41:28.812Z,30.42
2023-01-23T00:43:55.903Z,25.60
2023-01-23T00:46:23.397Z,29.25
2023-01-23T00:48:53.678Z,23.45
2023-01-23T00:51:20.966Z,29.02
2023-01-23T00:53:48.233Z,30.02
2023-01-23T00:56:15.102Z,28.38
2023-01-23T00:58:44.178Z,29.52
2023-01-23T01:01:12.002Z,29.48
2023-01-23T01:03:38.676Z,27.98
2023-01-23T01:06:07.950Z,25.92
2023-01-23T01:08:35.148Z,28.60
2023-01-23T01:11:02.288Z,25.23
2023-01-23T01:13:29.056Z,27.30
2023-01-23T01:15:56.183Z,29.85
2023-01-23T01:18:23.229Z,26.38
2023-01-23T01:20:51.413Z,27.10
2023-01-23T01:23:19.089Z,28.38
2023-01-23T01:25:46.005Z,29.83
2023-01-23T01:28:13.403Z,28.20
2023-01-23T01:30:41.489Z,26.90
2023-01-23T01:33:08.797Z,26.67
2023-01-23T01:35:35.836Z,28.38
2023-01-23T01:38:02.899Z,27.25
2023-01-23T01:40:33.827Z,26.13
2023-01-23T01:43:06.714Z,29.60
2023-01-23T01:45:58.416Z,25.60
2023-01-23T01:48:31.461Z,29.85
2023-01-23T01:51:00.909Z,27.90
2023-01-23T01:53:31.344Z,29.10
2023-01-23T01:55:59.095Z,30.73
2023-01-23T01:58:27.769Z,35.53
2023-01-23T02:00:55.452Z,31.17
2023-01-23T02:03:22.997Z,24.25
2023-01-23T02:05:50.971Z,29.77
2023-01-23T02:08:28.774Z,33.35
2023-01-23T02:10:56.194Z,27.73
2023-01-23T02:13:26.917Z,37.33
2023-01-23T02:15:54.047Z,30.05
2023-01-23T02:18:22.184Z,30.02
2023-01-23T02:20:52.276Z,28.10
2023-01-23T02:23:45.285Z,30.17
2023-01-23T02:26:22.475Z,33.70
2023-01-23T02:28:52.573Z,28.88
2023-01-23T02:31:20.490Z,27.88
2023-01-23T02:33:50.994Z,33.30
2023-01-23T02:36:20.905Z,34.40
2023-01-23T02:39:06.384Z,32.72
2023-01-23T02:41:38.995Z,29.60
2023-01-23T02:44:19.148Z,27.95
2023-01-23T02:46:46.357Z,30.88
2023-01-23T02:49:13.477Z,32.85
2023-01-23T02:51:40.463Z,32.25
2023-01-23T02:54:07.500Z,31.08
2023-01-23T02:56:35.059Z,26.52
2023-01-23T02:59:20.734Z,27.10
2023-01-23T03:01:47.773Z,29.38
2023-01-23T03:04:14.685Z,27.92
2023-01-23T03:06:41.762Z,31.80
2023-01-23T03:09:11.403Z,29.55
2023-01-23T03:11:40.254Z,25.98
2023-01-23T03:14:10.054Z,24.38
2023-01-23T03:16:38.471Z,25.40
2023-01-23T03:19:09.229Z,26.77
2023-01-23T03:21:40.665Z,25.75
2023-01-23T03:24:10.404Z,23.63
2023-01-23T03:26:42.091Z,23.08
2023-01-23T03:29:33.791Z,25.52
2023-01-23T03:32:00.870Z,22.75
2023-01-23T03:34:28.615Z,21.75
2023-01-23T03:36:55.804Z,22.95
2023-01-23T03:39:41.600Z,22.40
2023-01-23T03:42:09.220Z,24.88
2023-01-23T03:44:36.592Z,21.83
2023-01-23T03:47:04.382Z,19.70
2023-01-23T03:49:31.371Z,20.67
2023-01-23T03:51:58.568Z,18.42
2023-01-23T03:54:25.945Z,17.83
2023-01-23T03:56:52.887Z,18.60
2023-01-23T03:59:19.838Z,20.20
2023-01-23T04:01:48.168Z,21.70
2023-01-23T04:04:15.468Z,16.63
2023-01-23T04:06:42.519Z,22.55
2023-01-23T04:09:09.637Z,17.38
2023-01-23T04:11:36.600Z,21.02
2023-01-23T04:14:03.411Z,19.63
2023-01-23T04:16:30.426Z,22.23
2023-01-23T04:18:57.451Z,18.75
2023-01-23T04:21:24.579Z,20.98
2023-01-23T04:23:51.578Z,21.70
2023-01-23T04:26:18.562Z,16.30
2023-01-23T04:28:45.456Z,17.33
2023-01-23T04:31:12.488Z,18.27
2023-01-23T04:33:39.524Z,16.33
2023-01-23T04:36:07.252Z,20.45
2023-01-23T04:38:34.825Z,18.15
2023-01-23T04:41:02.167Z,15.38
2023-01-23T04:43:29.000Z,14.68
2023-01-23T04:45:57.144Z,21.65
2023-01-23T04:48:24.946Z,17.25
2023-01-23T04:50:52.129Z,17.45
2023-01-23T04:53:19.675Z,20.35
2023-01-23T04:55:49.979Z,19.42
2023-01-23T04:58:18.522Z,20.27
2023-01-23T05:00:46.160Z,19.60
2023-01-23T05:03:14.208Z,20.08
2023-01-23T05:05:43.065Z,22.08
2023-01-23T05:08:12.089Z,21.63
2023-01-23T05:10:39.232Z,20.85
2023-01-23T05:13:06.276Z,18.90
2023-01-23T05:15:33.201Z,17.85
2023-01-23T05:18:00.262Z,19.58
2023-01-23T05:20:27.421Z,18.58
2023-01-23T05:22:54.501Z,17.88
2023-01-23T05:25:26.477Z,19.42
2023-01-23T05:27:54.372Z,17.50
2023-01-23T05:30:23.136Z,19.25
2023-01-23T05:32:50.635Z,20.27
2023-01-23T05:35:17.940Z,19.40
2023-01-23T05:37:49.855Z,19.90
2023-01-23T05:40:17.223Z,18.17
2023-01-23T05:42:44.244Z,14.52
2023-01-23T05:45:11.848Z,15.73
2023-01-23T05:47:39.121Z,15.05
2023-01-23T05:50:08.303Z,17.65
2023-01-23T05:52:36.148Z,17.58
2023-01-23T05:55:03.160Z,15.32
2023-01-23T05:57:30.091Z,19.42
2023-01-23T05:59:56.837Z,19.88
2023-01-23T06:02:23.764Z,16.35
2023-01-23T06:04:50.845Z,14.20
2023-01-23T06:07:19.487Z,17.20
2023-01-23T06:09:47.086Z,14.02
2023-01-23T06:12:13.997Z,17.50
2023-01-23T06:14:41.205Z,20.67
2023-01-23T06:17:08.409Z,14.63
2023-01-23T06:19:35.392Z,19.38
2023-01-23T06:22:02.121Z,19.17
2023-01-23T06:24:28.954Z,11.27
2023-01-23T06:26:55.967Z,17.17
2023-01-23T06:29:22.920Z,16.10
2023-01-23T06:31:49.996Z,16.02
2023-01-23T06:34:17.404Z,15.10
2023-01-23T06:36:44.492Z,16.30
2023-01-23T06:39:15.418Z,17.92
2023-01-23T06:41:43.169Z,17.15
2023-01-23T06:44:10.430Z,14.18
2023-01-23T06:46:37.765Z,7.70
2023-01-23T06:49:06.434Z,15.10
2023-01-23T06:51:33.973Z,15.15
2023-01-23T06:54:01.360Z,16.85
2023-01-23T06:56:28.282Z,14.35
2023-01-23T06:58:55.520Z,16.75
2023-01-23T07:01:23.112Z,13.52
2023-01-23T07:03:50.420Z,14.43
2023-01-23T07:06:17.570Z,17.80
2023-01-23T07:08:44.703Z,17.05
2023-01-23T07:11:12.139Z,17.92
2023-01-23T07:13:39.250Z,15.90
2023-01-23T07:16:06.712Z,17.83
2023-01-23T07:18:33.741Z,17.42
2023-01-23T07:21:01.316Z,13.18
2023-01-23T07:23:28.313Z,17.95
2023-01-23T07:26:03.854Z,14.73
2023-01-23T07:28:31.097Z,18.33
2023-01-23T07:30:59.939Z,12.48
2023-01-23T07:33:27.139Z,12.40
2023-01-23T07:35:54.621Z,20.73
2023-01-23T07:38:23.572Z,15.90
2023-01-23T07:40:51.382Z,14.70
2023-01-23T07:43:18.789Z,17.90
2023-01-23T07:45:45.816Z,17.58
2023-01-23T07:48:12.824Z,18.52
2023-01-23T07:50:39.970Z,21.17
2023-01-23T07:53:07.431Z,17.40
2023-01-23T07:55:35.392Z,14.35
2023-01-23T07:58:02.247Z,21.65
2023-01-23T08:00:30.334Z,18.17
2023-01-23T08:02:58.525Z,18.92
2023-01-23T08:05:26.107Z,17.63
2023-01-23T08:08:07.305Z,15.95
2023-01-23T08:10:41.495Z,13.00
2023-01-23T08:13:08.890Z,13.50
2023-01-23T08:15:38.561Z,10.95
2023-01-23T08:18:05.721Z,14.57
2023-01-23T08:20:32.716Z,12.45
2023-01-23T08:23:01.732Z,15.80
2023-01-23T08:25:28.699Z,13.98
2023-01-23T08:27:55.827Z,13.30
2023-01-23T08:30:22.952Z,14.00
2023-01-23T08:32:50.245Z,13.10
2023-01-23T08:35:17.255Z,14.38
2023-01-23T08:37:44.253Z,15.00
2023-01-23T08:40:12.038Z,12.32
2023-01-23T08:42:39.080Z,12.80
2023-01-23T08:45:06.507Z,12.93
2023-01-23T08:47:37.134Z,12.55
2023-01-23T08:50:05.783Z,14.43
2023-01-23T08:52:34.954Z,14.68
2023-01-23T08:55:01.926Z,14.43
2023-01-23T08:57:28.721Z,13.00
2023-01-23T08:59:55.718Z,16.63
2023-01-23T09:02:22.873Z,11.55
2023-01-23T09:04:50.890Z,12.18
2023-01-23T09:07:17.958Z,13.45
2023-01-23T09:09:44.792Z,15.25
2023-01-23T09:12:12.083Z,13.88
2023-01-23T09:14:39.181Z,14.75
2023-01-23T09:17:06.350Z,11.13
2023-01-23T09:19:35.695Z,9.35
2023-01-23T09:22:02.979Z,12.70
2023-01-23T09:24:29.932Z,13.23
2023-01-23T09:26:56.957Z,13.57
2023-01-23T09:29:23.730Z,10.65
2023-01-23T09:31:50.838Z,16.70
2023-01-23T09:34:17.921Z,12.82
2023-01-23T09:36:45.020Z,10.45
2023-01-23T09:39:12.450Z,12.57
2023-01-23T09:41:41.112Z,13.35
2023-01-23T09:44:28.930Z,13.35
2023-01-23T09:47:06.536Z,12.98
2023-01-23T09:49:48.684Z,11.20
2023-01-23T09:52:19.827Z,11.80
2023-01-23T09:55:21.612Z,9.65
2023-01-23T09:57:55.377Z,10.15
2023-01-23T10:00:32.113Z,11.13
2023-01-23T10:03:05.428Z,13.48
2023-01-23T10:05:41.589Z,11.45
2023-01-23T10:08:27.348Z,14.27
2023-01-23T10:10:57.128Z,11.70
2023-01-23T10:14:05.475Z,12.65
2023-01-23T10:16:55.641Z,11.30
2023-01-23T10:19:40.902Z,10.70
2023-01-23T10:22:22.801Z,11.63
2023-01-23T10:24:56.948Z,14.20
2023-01-23T10:27:38.519Z,12.00
2023-01-23T10:30:34.779Z,10.57
2023-01-23T10:33:09.858Z,15.45
2023-01-23T10:35:45.008Z,14.95
2023-01-23T10:38:33.882Z,20.25
2023-01-23T10:41:22.364Z,15.30
2023-01-23T10:43:52.094Z,15.00
2023-01-23T10:46:20.469Z,13.50
2023-01-23T10:48:52.851Z,18.17
2023-01-23T10:51:27.283Z,19.83
2023-01-23T10:54:13.081Z,15.82
2023-01-23T10:56:58.304Z,18.15
2023-01-23T10:59:28.269Z,17.27
2023-01-23T11:02:00.060Z,18.55
2023-01-23T11:04:29.578Z,17.02
2023-01-23T11:07:18.455Z,18.88
2023-01-23T11:09:49.949Z,13.48
2023-01-23T11:12:19.969Z,15.93
2023-01-23T11:14:47.228Z,15.48
2023-01-23T11:17:19.410Z,14.63
2023-01-23T11:19:51.797Z,16.10
2023-01-23T11:22:36.924Z,15.32
2023-01-23T11:25:31.077Z,16.25
2023-01-23T11:28:00.762Z,16.48
2023-01-23T11:30:41.545Z,19.05
2023-01-23T11:33:08.509Z,16.58
2023-01-23T11:35:44.491Z,16.58
2023-01-23T11:38:17.982Z,15.95
2023-01-23T11:40:48.404Z,15.70
2023-01-23T11:43:17.325Z,19.88
2023-01-23T11:46:11.538Z,17.05
2023-01-23T11:48:57.344Z,22.80
2023-01-23T11:51:38.411Z,16.55
2023-01-23T11:54:14.409Z,15.20
2023-01-23T11:56:47.184Z,14.07
2023-01-23T11:59:22.665Z,16.55
2023-01-23T12:02:14.352Z,16.85
2023-01-23T12:04:52.618Z,18.17
2023-01-23T12:07:23.179Z,16.50
2023-01-23T12:09:58.817Z,16.17
2023-01-23T12:12:25.789Z,19.90
2023-01-23T12:15:33.157Z,15.13
2023-01-23T12:18:28.260Z,11.20
2023-01-23T12:21:19.702Z,17.17
2023-01-23T12:23:55.340Z,18.38
2023-01-23T12:26:23.335Z,17.98
2023-01-23T12:29:11.839Z,17.25
2023-01-23T12:31:48.485Z,16.52
2023-01-23T12:34:21.289Z,13.75
2023-01-23T12:37:14.275Z,13.93
2023-01-23T12:39:43.636Z,11.77
2023-01-23T12:42:21.448Z,13.60
2023-01-23T12:45:03.892Z,16.23
2023-01-23T12:47:36.752Z,13.43
2023-01-23T12:50:16.329Z,16.23
2023-01-23T12:52:50.104Z,11.63
2023-01-23T12:55:19.672Z,12.40
2023-01-23T12:57:59.456Z,10.93
2023-01-23T13:00:50.312Z,12.18
2023-01-23T13:03:46.014Z,12.10
2023-01-23T13:06:43.303Z,13.18
2023-01-23T13:09:17.827Z,12.02
2023-01-23T13:12:22.678Z,12.85
2023-01-23T13:15:12.917Z,9.13
2023-01-23T13:17:49.581Z,9.35
2023-01-23T13:20:41.525Z,12.57
2023-01-23T13:23:27.976Z,13.13
2023-01-23T13:26:16.708Z,11.85
2023-01-23T13:28:48.722Z,11.85
2023-01-23T13:31:27.464Z,12.20
2023-01-23T13:34:06.524Z,13.60
2023-01-23T13:36:41.383Z,12.15
2023-01-23T13:39:17.721Z,14.50
2023-01-23T13:41:45.756Z,10.02
2023-01-23T13:44:19.100Z,10.20
2023-01-23T14:24:55.527Z,15.70
2023-01-23T14:27:53.339Z,13.55
2023-01-23T14:30:27.404Z,23.35
2023-01-23T14:32:54.801Z,14.93
2023-01-23T14:35:30.306Z,14.70
2023-01-23T14:38:00.847Z,13.60
2023-01-23T14:40:35.204Z,13.27
2023-01-23T14:43:08.088Z,14.45
2023-01-23T14:45:36.588Z,16.00
2023-01-23T14:48:07.408Z,16.15
2023-01-23T14:50:35.326Z,15.38
2023-01-23T14:53:07.872Z,13.07
2023-01-23T14:55:37.973Z,10.70
2023-01-23T14:58:06.136Z,11.32
2023-01-23T15:00:35.991Z,11.98
2023-01-23T15:03:04.930Z,7.55
2023-01-23T15:05:32.943Z,15.18
2023-01-23T15:08:03.879Z,16.02
2023-01-23T15:10:51.662Z,12.65
2023-01-23T15:13:34.349Z,15.23
2023-01-23T15:16:04.106Z,16.77
2023-01-23T15:18:35.060Z,17.13
2023-01-23T15:21:33.495Z,16.45
2023-01-23T15:24:09.204Z,16.55
2023-01-23T15:26:37.849Z,15.80
2023-01-23T15:29:10.847Z,17.30
2023-01-23T15:31:40.912Z,13.75
2023-01-23T15:34:16.916Z,16.80
2023-01-23T15:36:50.992Z,17.92
2023-01-23T15:39:23.058Z,14.80
2023-01-23T15:41:53.373Z,21.38
2023-01-23T15:44:22.304Z,16.40
2023-01-23T15:46:49.423Z,13.90
2023-01-23T15:49:25.535Z,16.05
2023-01-23T15:51:55.900Z,17.27
2023-01-23T15:54:34.848Z,15.80
2023-01-23T15:57:08.003Z,15.77
2023-01-23T15:59:36.895Z,15.93
2023-01-23T16:02:05.558Z,18.27
2023-01-23T16:04:33.073Z,18.13
2023-01-23T16:07:05.267Z,18.38
2023-01-23T16:09:36.085Z,19.20
2023-01-23T16:12:03.573Z,16.23
2023-01-23T16:14:30.575Z,16.77
2023-01-23T16:17:04.698Z,17.80
2023-01-23T16:19:38.653Z,17.65
2023-01-23T16:22:06.328Z,18.95
2023-01-23T16:24:36.997Z,13.80
2023-01-23T16:27:06.998Z,18.95
2023-01-23T16:29:35.525Z,17.92
2023-01-23T16:32:03.177Z,18.77
2023-01-23T16:34:30.604Z,19.02
2023-01-23T16:37:00.974Z,16.02
2023-01-23T16:39:31.567Z,18.85
2023-01-23T16:41:58.437Z,16.67
2023-01-23T16:44:27.012Z,19.35
2023-01-23T16:46:54.429Z,17.85
2023-01-23T16:49:21.590Z,18.33
2023-01-23T16:51:56.632Z,17.77
2023-01-23T16:54:24.407Z,19.80
2023-01-23T16:56:53.136Z,17.13
2023-01-23T16:59:34.515Z,18.88
2023-01-23T17:02:06.072Z,18.75
2023-01-23T17:04:32.906Z,20.23
2023-01-23T17:06:59.853Z,15.63
2023-01-23T17:09:26.846Z,16.08
2023-01-23T17:11:56.485Z,15.95
2023-01-23T17:14:28.076Z,17.48
2023-01-23T17:17:06.233Z,16.23
2023-01-23T17:19:37.760Z,15.52
2023-01-23T17:22:06.423Z,14.90
2023-01-23T17:24:33.424Z,15.35
2023-01-23T17:27:00.101Z,17.67
2023-01-23T17:29:27.669Z,19.67
2023-01-23T17:31:54.849Z,16.10
2023-01-23T17:34:24.567Z,15.88
2023-01-23T17:36:54.497Z,16.90
2023-01-23T17:39:21.693Z,17.27
2023-01-23T17:41:48.840Z,15.25
2023-01-23T17:44:15.822Z,16.90
2023-01-23T17:46:42.793Z,17.95
2023-01-23T17:49:31.051Z,17.67
2023-01-23T17:52:00.189Z,20.33
2023-01-23T17:54:27.215Z,22.17
2023-01-23T17:56:54.722Z,16.92
2023-01-23T17:59:21.902Z,16.73
2023-01-23T18:01:49.018Z,15.90
2023-01-23T18:04:21.198Z,18.05
2023-01-23T18:06:48.790Z,16.48
2023-01-23T18:09:16.383Z,13.95
2023-01-23T18:11:52.019Z,19.50
2023-01-23T18:14:31.670Z,20.52
2023-01-23T18:16:58.559Z,16.05
2023-01-23T18:19:27.862Z,14.80
2023-01-23T18:21:57.440Z,21.70
2023-01-23T18:24:30.725Z,15.20
2023-01-23T18:27:00.692Z,15.52
2023-01-23T18:29:36.700Z,16.90
2023-01-23T18:32:39.939Z,13.77
2023-01-23T18:35:12.510Z,17.23
2023-01-23T18:37:45.281Z,14.93
2023-01-23T18:40:28.988Z,13.60
2023-01-23T18:42:59.584Z,15.45
2023-01-23T18:45:27.808Z,13.15
2023-01-23T18:47:55.479Z,15.60
2023-01-23T18:50:23.138Z,16.52
2023-01-23T18:53:17.486Z,15.45
2023-01-23T18:56:05.871Z,9.20
2023-01-23T18:59:13.002Z,14.27
2023-01-23T19:02:00.001Z,13.52
2023-01-23T19:05:12.566Z,10.52
2023-01-23T19:07:40.300Z,13.80
2023-01-23T19:10:13.237Z,11.52
2023-01-23T19:13:01.409Z,13.77
2023-01-23T19:15:56.318Z,14.40
2023-01-23T19:18:48.621Z,12.70
2023-01-23T19:21:15.680Z,12.25
2023-01-23T19:23:54.242Z,13.80
2023-01-23T19:26:21.881Z,14.38
2023-01-23T19:28:50.936Z,17.50
2023-01-23T19:31:26.208Z,13.30
2023-01-23T19:33:53.885Z,14.30
2023-01-23T19:36:22.271Z,13.20
2023-01-23T19:38:50.087Z,12.43
2023-01-23T19:41:23.572Z,12.25
2023-01-23T19:43:52.954Z,11.18
2023-01-23T19:46:21.990Z,12.65
2023-01-23T19:48:49.030Z,11.45
2023-01-23T19:51:19.577Z,11.23
2023-01-23T19:53:47.325Z,12.38
2023-01-23T19:56:18.100Z,12.38
2023-01-23T19:58:46.198Z,14.15
2023-01-23T20:01:41.218Z,10.38
2023-01-23T20:04:13.544Z,13.32
2023-01-23T20:06:40.985Z,9.63
2023-01-23T20:09:11.464Z,10.13
2023-01-23T20:11:38.490Z,12.48
2023-01-23T20:14:05.510Z,11.10
2023-01-23T20:16:32.550Z,10.35
2023-01-23T20:18:59.848Z,12.07
2023-01-23T20:21:26.837Z,7.82
2023-01-23T20:23:56.013Z,12.95
2023-01-23T20:26:23.839Z,12.82
2023-01-23T20:28:55.729Z,11.95
2023-01-23T20:31:22.881Z,9.75
2023-01-23T20:33:49.963Z,10.35
2023-01-23T20:36:17.184Z,12.13
2023-01-23T20:38:44.266Z,10.60
2023-01-23T20:41:16.011Z,10.55
2023-01-23T20:43:43.420Z,14.65
2023-01-23T20:46:11.704Z,13.52
2023-01-23T20:48:41.929Z,9.38
2023-01-23T20:51:10.462Z,10.77
2023-01-23T20:53:39.739Z,10.80
2023-01-23T20:56:09.691Z,12.60
2023-01-23T20:58:57.988Z,13.38
2023-01-23T21:01:28.081Z,12.38
2023-01-23T21:03:55.608Z,11.77
2023-01-23T21:06:23.038Z,10.30
2023-01-23T21:08:49.820Z,11.55
2023-01-23T21:11:19.932Z,14.07
2023-01-23T21:13:53.564Z,11.70
2023-01-23T21:16:20.918Z,10.15
2023-01-23T21:18:48.180Z,11.88
2023-01-23T21:21:18.333Z,14.52
2023-01-23T21:23:52.338Z,10.57
2023-01-23T21:26:22.792Z,9.07
2023-01-23T21:28:51.624Z,11.60
2023-01-23T21:31:39.612Z,11.68
2023-01-23T21:34:10.126Z,11.30
2023-01-23T21:36:37.869Z,13.13
2023-01-23T21:39:06.715Z,11.10
2023-01-23T21:41:34.943Z,13.13
2023-01-23T21:44:01.906Z,11.65
2023-01-23T21:46:28.862Z,8.38
2023-01-23T21:48:55.840Z,7.35
2023-01-23T21:51:25.489Z,11.07
2023-01-23T21:53:52.480Z,11.23
2023-01-23T21:56:21.222Z,13.57
2023-01-23T21:58:48.647Z,9.73
2023-01-23T22:01:32.713Z,14.02
2023-01-23T22:04:02.492Z,12.70
2023-01-23T22:06:30.858Z,12.05
2023-01-23T22:08:58.220Z,13.18
2023-01-23T22:11:25.568Z,12.70
2023-01-23T22:13:53.259Z,12.10
2023-01-23T22:16:22.939Z,11.18
2023-01-23T22:18:55.223Z,12.73
2023-01-23T22:21:22.433Z,14.20
2023-01-23T22:23:49.160Z,9.57
2023-01-23T22:26:17.622Z,11.63
2023-01-23T22:28:44.574Z,12.35
2023-01-23T22:31:14.323Z,10.15
2023-01-23T22:33:47.561Z,12.05
2023-01-23T22:36:18.077Z,12.25
2023-01-23T22:38:50.133Z,15.02
2023-01-23T22:41:17.001Z,11.45
2023-01-23T22:43:44.092Z,9.50
2023-01-23T22:46:19.219Z,12.63
2023-01-23T22:48:46.341Z,11.82
2023-01-23T22:51:16.405Z,17.17
2023-01-23T22:53:44.168Z,14.25
2023-01-23T22:56:12.182Z,15.77
2023-01-23T22:58:39.903Z,15.30
2023-01-23T23:01:07.299Z,13.45
2023-01-23T23:03:35.248Z,15.80
2023-01-23T23:06:08.785Z,17.98
2023-01-23T23:08:36.387Z,20.25
2023-01-23T23:11:10.080Z,14.55
2023-01-23T23:13:39.229Z,14.30
2023-01-23T23:16:15.011Z,14.90
2023-01-23T23:18:42.319Z,12.98
2023-01-23T23:21:12.124Z,14.30
2023-01-23T23:23:39.959Z,13.88
2023-01-23T23:26:09.712Z,20.48
2023-01-23T23:28:37.779Z,14.70
2023-01-23T23:31:06.458Z,20.15
2023-01-23T23:33:34.003Z,17.70
2023-01-23T23:36:01.080Z,14.75
2023-01-23T23:38:28.136Z,15.48
2023-01-23T23:41:00.215Z,12.82
2023-01-23T23:43:28.293Z,15.48
2023-01-23T23:45:57.584Z,13.82
2023-01-23T23:48:25.722Z,18.63
2023-01-23T23:50:53.460Z,13.95
2023-01-23T23:53:21.730Z,15.68
2023-01-23T23:55:48.895Z,15.82
2023-01-23T23:58:16.329Z,16.23
